Aviation Digital Data Service (ADDS)

Output produced by METARs form (0508 UTC 20 October 2017)
found at http://aviationweather.gov/adds/metars/
 
KGSO 192320Z 2000/2024 VRB02KT P6SM SKC 
     FM201400 04004KT P6SM SCT250